Time;durP1;ratioP1;P1;durP2;ratioP2;P2;SDS_P1;SDS_P2;PMS_P1;PMS_P2;Temp;Humidity;BMP_temperature;BMP_pressure;BME280_temperature;BME280_humidity;BME280_pressure;Samples;Min_cycle;Max_cycle;Signal;HPM_P1;HPM_P2
2022/06/12 00:01:00;;;;;;;11.48;4.88;;;17.30;73.60;;;;;;5073459;28;20365;-54
2022/06/12 00:03:27;;;;;;;10.05;4.45;;;17.10;74.50;;;;;;5073488;28;20036;-50
2022/06/12 00:05:56;;;;;;;12.50;5.28;;;17.20;74.20;;;;;;5073306;28;20025;-52
2022/06/12 00:08:23;;;;;;;12.68;6.93;;;17.30;73.80;;;;;;5073467;28;20127;-49
2022/06/12 00:10:52;;;;;;;19.77;5.75;;;17.40;73.90;;;;;;5072914;28;20063;-49
2022/06/12 00:13:23;;;;;;;21.67;8.05;;;17.40;74.00;;;;;;5073475;28;20537;-49
2022/06/12 00:15:49;;;;;;;12.18;5.85;;;17.40;74.00;;;;;;5072881;28;20432;-49
2022/06/12 00:18:15;;;;;;;14.00;6.45;;;17.40;73.40;;;;;;5073635;28;20052;-49
2022/06/12 00:20:41;;;;;;;11.65;6.40;;;17.30;73.10;;;;;;5073466;28;20031;-49
2022/06/12 00:23:10;;;;;;;12.57;5.15;;;17.30;73.10;;;;;;5073474;28;20033;-50
2022/06/12 00:25:36;;;;;;;12.07;5.85;;;17.40;72.30;;;;;;5073385;28;20035;-49
2022/06/12 00:28:03;;;;;;;11.32;4.97;;;17.50;71.40;;;;;;5072108;28;20137;-50
2022/06/12 00:30:29;;;;;;;17.17;5.65;;;17.50;70.80;;;;;;5071923;28;20041;-51
2022/06/12 00:32:55;;;;;;;13.10;4.55;;;17.50;70.30;;;;;;5072062;28;20074;-49
2022/06/12 00:35:26;;;;;;;13.00;3.92;;;17.50;70.00;;;;;;5073695;28;20028;-49
2022/06/12 00:37:52;;;;;;;13.90;4.05;;;17.50;70.00;;;;;;5073263;28;20452;-51
2022/06/12 00:40:19;;;;;;;14.23;4.78;;;17.40;70.00;;;;;;5073601;28;20036;-48
2022/06/12 00:42:57;;;;;;;8.45;4.20;;;17.30;70.30;;;;;;5073157;28;20029;-51
2022/06/12 00:45:47;;;;;;;11.25;4.13;;;17.30;69.90;;;;;;5073583;28;20382;-50
2022/06/12 00:48:17;;;;;;;8.83;3.73;;;17.30;70.00;;;;;;5072923;28;20361;-48
2022/06/12 00:50:50;;;;;;;8.73;3.60;;;17.20;70.20;;;;;;5072989;28;20283;-49
2022/06/12 00:53:21;;;;;;;13.82;4.13;;;17.20;70.50;;;;;;5072626;28;20307;-51
2022/06/12 00:56:09;;;;;;;10.48;3.83;;;17.20;70.40;;;;;;5072887;28;20020;-49
2022/06/12 00:58:40;;;;;;;12.43;4.55;;;17.10;70.60;;;;;;5074885;28;20174;-51
2022/06/12 01:01:09;;;;;;;;;;;17.00;70.80;;;;;;5076869;28;20382;-50
2022/06/12 01:06:33;;;;;;;15.60;3.72;;;16.90;70.90;;;;;;5076340;28;19905;-50
2022/06/12 01:06:35;;;;;;;12.57;3.97;;;17.00;70.90;;;;;;5076041;28;20024;-50
2022/06/12 01:09:11;;;;;;;14.45;4.75;;;16.90;70.90;;;;;;5074850;28;20074;-50
2022/06/12 01:11:39;;;;;;;14.77;3.50;;;16.80;71.10;;;;;;5075805;28;20041;-48
2022/06/12 01:14:09;;;;;;;11.35;5.75;;;16.80;71.50;;;;;;5076441;28;20036;-51
2022/06/12 01:16:40;;;;;;;18.13;5.38;;;16.70;72.10;;;;;;5076110;28;20023;-52
2022/06/12 01:19:08;;;;;;;14.38;4.63;;;16.70;72.10;;;;;;5076223;28;20108;-49
2022/06/12 01:22:04;;;;;;;16.25;3.78;;;16.70;72.20;;;;;;5076069;28;20476;-48
2022/06/12 01:24:58;;;;;;;9.90;3.50;;;16.60;72.50;;;;;;5075998;28;20052;-49
2022/06/12 01:27:26;;;;;;;14.82;6.57;;;16.50;73.30;;;;;;5075883;28;20419;-50
2022/06/12 01:30:21;;;;;;;12.20;4.15;;;16.40;73.60;;;;;;5075663;28;20035;-50
2022/06/12 01:33:08;;;;;;;11.07;3.65;;;16.40;73.30;;;;;;5066100;28;20499;-50
2022/06/12 01:35:46;;;;;;;15.50;3.58;;;16.30;73.20;;;;;;5075813;28;20423;-52
2022/06/12 01:38:25;;;;;;;11.68;3.63;;;16.30;73.40;;;;;;5075873;28;20384;-49
2022/06/12 01:40:58;;;;;;;10.55;3.80;;;16.30;73.60;;;;;;5075571;28;20021;-48
2022/06/12 01:43:43;;;;;;;9.88;4.13;;;16.30;74.50;;;;;;5075999;28;20028;-49
2022/06/12 01:46:20;;;;;;;15.02;4.63;;;16.40;73.80;;;;;;5075487;28;20028;-50
2022/06/12 01:49:24;;;;;;;10.60;4.65;;;16.30;74.60;;;;;;5075710;28;20488;-48
2022/06/12 01:51:59;;;;;;;19.85;5.82;;;16.20;76.10;;;;;;5068739;28;20072;-49
2022/06/12 01:54:33;;;;;;;10.70;4.18;;;16.00;76.80;;;;;;5075285;28;20029;-49
2022/06/12 01:57:04;;;;;;;12.02;3.90;;;15.80;76.90;;;;;;5075464;28;20028;-51
2022/06/12 01:59:48;;;;;;;9.73;4.18;;;15.70;77.80;;;;;;5075125;28;20066;-51
2022/06/12 02:02:33;;;;;;;10.30;4.45;;;15.60;78.70;;;;;;5075151;28;20032;-49
2022/06/12 02:04:59;;;;;;;12.57;4.40;;;15.60;79.10;;;;;;5075372;28;20049;-50
2022/06/12 02:07:40;;;;;;;9.10;4.40;;;15.50;79.30;;;;;;5075201;28;20502;-49
2022/06/12 02:10:20;;;;;;;8.68;3.97;;;15.50;79.40;;;;;;5073386;28;20047;-53
2022/06/12 02:13:11;;;;;;;24.38;4.50;;;15.40;79.60;;;;;;5074940;28;20021;-49
2022/06/12 02:15:55;;;;;;;8.82;4.20;;;15.40;79.70;;;;;;5075250;28;20476;-49
2022/06/12 02:18:30;;;;;;;13.32;4.22;;;15.40;79.70;;;;;;5074780;28;20021;-49
2022/06/12 02:21:13;;;;;;;19.50;8.73;;;15.50;79.40;;;;;;5075316;28;20380;-50
2022/06/12 02:24:18;;;;;;;6.80;4.13;;;15.40;79.60;;;;;;5074859;28;20035;-49
2022/06/12 02:27:01;;;;;;;10.70;5.30;;;15.40;79.80;;;;;;5032646;28;20041;-49
2022/06/12 02:29:35;;;;;;;11.93;5.03;;;15.40;80.20;;;;;;5071219;28;20028;-53
2022/06/12 02:32:13;;;;;;;13.95;5.22;;;15.40;80.00;;;;;;5073248;28;20020;-50
2022/06/12 02:34:44;;;;;;;8.40;4.65;;;15.40;80.40;;;;;;5074500;28;20056;-51
2022/06/12 02:37:17;;;;;;;9.77;5.20;;;15.30;80.50;;;;;;5074662;28;20372;-51
2022/06/12 02:39:48;;;;;;;8.00;4.38;;;15.20;81.00;;;;;;5074263;28;20027;-52
2022/06/12 02:42:19;;;;;;;6.18;4.20;;;15.10;81.50;;;;;;5057163;28;20032;-50
2022/06/12 02:44:55;;;;;;;8.73;5.22;;;15.10;81.60;;;;;;5074412;28;20029;-49
2022/06/12 02:47:25;;;;;;;12.27;5.22;;;15.10;81.80;;;;;;5074189;28;20020;-48
2022/06/12 02:49:52;;;;;;;;;;;15.10;81.90;;;;;;5074778;28;20048;-50
2022/06/12 02:52:47;;;;;;;10.95;5.63;;;15.00;82.10;;;;;;5074268;28;20410;-49
2022/06/12 20:15:37;;;;;;;3.38;1.33;;;18.40;50.20;;;;;;5071958;28;20383;-49
2022/06/12 20:18:14;;;;;;;5.47;1.30;;;18.30;50.50;;;;;;5071025;28;20078;-52
2022/06/12 20:20:58;;;;;;;5.15;1.48;;;18.30;50.30;;;;;;5069721;28;20075;-50
2022/06/12 20:23:26;;;;;;;1.55;1.05;;;18.40;50.40;;;;;;5071149;28;20025;-49
2022/06/12 20:25:54;;;;;;;4.93;1.38;;;18.30;50.30;;;;;;5071176;28;20025;-50
2022/06/12 20:28:21;;;;;;;6.18;1.10;;;18.30;50.50;;;;;;5070755;28;20465;-49
2022/06/12 20:30:49;;;;;;;3.58;1.65;;;18.30;50.50;;;;;;5070335;28;20027;-50
2022/06/12 20:33:16;;;;;;;4.63;1.50;;;18.30;50.90;;;;;;5070790;28;20021;-49
2022/06/12 20:35:42;;;;;;;4.25;1.45;;;18.20;50.90;;;;;;5070726;28;20020;-52
2022/06/12 20:38:07;;;;;;;5.00;2.33;;;18.30;50.90;;;;;;5070613;28;20029;-50
2022/06/12 20:40:34;;;;;;;4.97;1.42;;;18.30;50.80;;;;;;5068799;28;20024;-51
2022/06/12 20:42:59;;;;;;;2.45;1.45;;;18.20;51.10;;;;;;5070153;28;20049;-52
2022/06/12 20:45:25;;;;;;;4.78;1.25;;;18.20;51.40;;;;;;5069687;28;20060;-49
2022/06/12 20:47:51;;;;;;;5.05;1.05;;;18.20;51.30;;;;;;5070287;28;20025;-51
2022/06/12 20:50:17;;;;;;;5.97;1.27;;;18.10;51.50;;;;;;5068963;28;20021;-49
2022/06/12 20:52:43;;;;;;;4.13;1.33;;;18.10;51.50;;;;;;5070077;28;20025;-50
2022/06/12 20:55:09;;;;;;;2.85;1.75;;;18.00;51.70;;;;;;5069995;28;20042;-49
2022/06/12 20:57:35;;;;;;;1.13;0.88;;;18.00;51.80;;;;;;5069924;28;20112;-50
2022/06/12 21:00:01;;;;;;;4.07;1.20;;;18.00;51.90;;;;;;5070140;28;20048;-51
2022/06/12 21:02:26;;;;;;;5.63;1.38;;;17.90;52.20;;;;;;5069495;28;20020;-37
2022/06/12 21:04:52;;;;;;;2.72;1.35;;;17.80;52.40;;;;;;5070990;28;20025;-37
2022/06/12 21:07:17;;;;;;;2.50;1.23;;;17.80;52.50;;;;;;5069494;28;20408;-37
2022/06/12 21:09:43;;;;;;;4.13;1.67;;;17.80;52.70;;;;;;5068462;28;20531;-39
2022/06/12 21:12:09;;;;;;;5.70;1.23;;;17.80;52.70;;;;;;5069989;28;20029;-37
2022/06/12 21:14:35;;;;;;;3.45;1.55;;;17.80;52.80;;;;;;5069405;28;20045;-49
2022/06/12 21:17:01;;;;;;;5.50;1.63;;;17.70;53.10;;;;;;5069606;28;20013;-49
2022/06/12 21:19:27;;;;;;;4.90;1.73;;;17.70;53.20;;;;;;5068404;28;20044;-51
2022/06/12 21:21:53;;;;;;;5.90;1.30;;;17.60;53.30;;;;;;5069481;28;20063;-53
2022/06/12 21:24:19;;;;;;;3.95;1.10;;;17.50;53.90;;;;;;5069311;28;20468;-50
2022/06/12 21:26:45;;;;;;;5.05;1.95;;;17.60;53.60;;;;;;5055690;28;20025;-48
2022/06/12 21:29:11;;;;;;;6.28;1.50;;;17.60;53.50;;;;;;5056276;28;20211;-51
2022/06/12 21:31:37;;;;;;;1.70;1.02;;;17.60;53.80;;;;;;5056284;28;20021;-52
2022/06/12 21:34:03;;;;;;;2.30;1.73;;;17.50;54.20;;;;;;5056393;28;20025;-49
2022/06/12 21:36:29;;;;;;;2.17;1.23;;;17.40;54.70;;;;;;5056117;28;20071;-49
2022/06/12 21:38:56;;;;;;;5.10;2.75;;;17.30;55.10;;;;;;5054555;28;20102;-48
2022/06/12 21:41:22;;;;;;;4.03;1.67;;;17.20;55.70;;;;;;5057009;28;20035;-51
2022/06/12 21:43:47;;;;;;;3.90;1.52;;;17.10;56.00;;;;;;5055792;28;20080;-51
2022/06/12 21:46:13;;;;;;;2.97;1.80;;;17.10;56.30;;;;;;5055825;28;20025;-51
2022/06/12 21:48:39;;;;;;;7.50;1.65;;;17.20;56.60;;;;;;5056031;28;20025;-51
2022/06/12 21:51:05;;;;;;;6.22;1.88;;;17.10;56.80;;;;;;5056282;28;20025;-49
2022/06/12 21:56:16;;;;;;;4.30;1.60;;;17.00;57.40;;;;;;5055353;28;20436;-49
2022/06/12 21:58:41;;;;;;;5.70;1.95;;;16.90;57.80;;;;;;5055896;28;20021;-49
2022/06/12 22:01:09;;;;;;;5.88;1.60;;;16.90;58.20;;;;;;5055262;28;20025;-50
2022/06/12 22:03:35;;;;;;;9.10;2.35;;;16.80;58.40;;;;;;5055178;28;20029;-52
2022/06/12 22:06:01;;;;;;;6.38;2.20;;;16.80;58.70;;;;;;5055369;28;20025;-49
2022/06/12 22:08:27;;;;;;;7.88;2.00;;;16.80;58.80;;;;;;5055316;28;20024;-51
2022/06/12 22:10:57;;;;;;;6.95;2.70;;;16.80;58.90;;;;;;5055710;28;20170;-50
2022/06/12 22:13:29;;;;;;;;;;;16.70;59.30;;;;;;5055575;28;20033;-49
2022/06/12 22:15:56;;;;;;;3.67;1.50;;;16.70;60.10;;;;;;5055176;28;19943;-50
2022/06/12 22:18:22;;;;;;;6.47;2.20;;;16.40;61.00;;;;;;5055538;28;20486;-51
2022/06/12 22:20:48;;;;;;;6.07;2.88;;;16.30;61.40;;;;;;5055724;28;20064;-51
2022/06/12 22:23:14;;;;;;;6.68;2.20;;;16.40;61.60;;;;;;5055158;28;20025;-50
2022/06/12 22:25:40;;;;;;;6.13;2.67;;;16.30;62.00;;;;;;5055098;28;20033;-50
2022/06/12 22:28:05;;;;;;;5.18;2.38;;;16.40;62.00;;;;;;5037207;28;20112;-49
2022/06/12 22:30:31;;;;;;;8.65;2.47;;;16.40;62.00;;;;;;5054840;28;20059;-49
2022/06/12 22:32:57;;;;;;;5.53;2.85;;;16.30;62.40;;;;;;5054930;28;20029;-50
2022/06/12 22:35:23;;;;;;;7.97;2.78;;;16.30;62.50;;;;;;5054605;28;20110;-53
2022/06/12 22:37:49;;;;;;;6.65;2.47;;;16.30;62.70;;;;;;5053683;28;20021;-51
2022/06/12 22:40:15;;;;;;;9.27;2.33;;;16.30;62.90;;;;;;5054536;28;20029;-50
2022/06/12 22:42:41;;;;;;;7.32;2.63;;;16.20;63.00;;;;;;5054638;28;20096;-51
2022/06/12 22:45:07;;;;;;;6.47;2.42;;;16.20;63.40;;;;;;5054434;28;20025;-49
2022/06/12 22:47:33;;;;;;;10.23;2.30;;;16.20;63.50;;;;;;5054665;28;20029;-53
2022/06/12 22:49:58;;;;;;;7.45;3.33;;;16.10;64.00;;;;;;5055207;28;20384;-48
2022/06/12 22:52:24;;;;;;;9.23;2.28;;;16.10;64.30;;;;;;5055261;28;20139;-50
2022/06/12 22:54:50;;;;;;;9.55;2.58;;;16.00;64.50;;;;;;5054677;28;20530;-50
2022/06/12 22:57:16;;;;;;;8.45;1.90;;;16.00;65.00;;;;;;5054991;28;20110;-50
2022/06/12 22:59:41;;;;;;;9.98;2.92;;;15.90;65.20;;;;;;5054875;28;20027;-53
2022/06/12 23:02:07;;;;;;;5.63;2.70;;;15.80;65.80;;;;;;5053432;28;20104;-50
2022/06/12 23:04:33;;;;;;;8.57;2.10;;;15.70;66.30;;;;;;5053170;28;20024;-49
2022/06/12 23:06:59;;;;;;;3.85;2.15;;;15.60;66.90;;;;;;5054500;28;20021;-53
2022/06/12 23:09:24;;;;;;;7.32;2.83;;;15.60;67.10;;;;;;5054276;28;20115;-50
2022/06/12 23:11:50;;;;;;;7.97;2.25;;;15.50;67.30;;;;;;5054559;28;20044;-50
2022/06/12 23:14:16;;;;;;;6.85;3.47;;;15.40;67.90;;;;;;5052992;28;20053;-48
2022/06/12 23:16:42;;;;;;;5.65;2.28;;;15.40;68.30;;;;;;5053636;28;20527;-51
2022/06/12 23:19:07;;;;;;;5.50;2.63;;;15.30;68.70;;;;;;5054612;28;20095;-49
2022/06/12 23:21:33;;;;;;;4.50;2.30;;;15.30;69.10;;;;;;5055005;28;20027;-51
2022/06/12 23:23:59;;;;;;;3.88;1.83;;;15.30;69.10;;;;;;5055052;28;20108;-51
2022/06/12 23:26:24;;;;;;;4.35;2.25;;;15.30;69.30;;;;;;5055324;28;20029;-51
2022/06/12 23:28:52;;;;;;;4.90;2.30;;;15.30;69.70;;;;;;5055374;28;20534;-49
2022/06/12 23:31:24;;;;;;;6.15;2.60;;;15.20;70.00;;;;;;5054143;28;20146;-52
2022/06/12 23:33:50;;;;;;;6.85;2.17;;;15.10;70.60;;;;;;5054431;28;20096;-49
2022/06/12 23:36:16;;;;;;;9.68;2.40;;;14.90;70.90;;;;;;5054006;28;20025;-49
2022/06/12 23:38:42;;;;;;;6.95;2.63;;;14.90;71.40;;;;;;5053629;28;20017;-49
2022/06/12 23:41:08;;;;;;;7.50;2.08;;;14.90;71.80;;;;;;5054217;28;20019;-50
2022/06/12 23:43:34;;;;;;;7.38;2.50;;;14.80;71.80;;;;;;5054159;28;20025;-50
2022/06/12 23:46:15;;;;;;;4.85;2.03;;;14.80;72.20;;;;;;5054394;28;20100;-50
2022/06/12 23:48:42;;;;;;;11.75;3.05;;;14.80;72.30;;;;;;5052402;28;20021;-50
2022/06/12 23:51:08;;;;;;;7.10;3.35;;;14.80;72.50;;;;;;5053361;28;20419;-51
2022/06/12 23:53:34;;;;;;;6.35;2.42;;;14.70;72.70;;;;;;5053618;28;20096;-49
2022/06/12 23:56:00;;;;;;;8.82;2.75;;;14.70;72.70;;;;;;5053997;28;20116;-49
2022/06/12 23:58:26;;;;;;;6.07;3.85;;;14.60;73.10;;;;;;5054270;28;20465;-50
